Austin, Texas
Traffic Map
Current Weather Conditions
Austin, Texas
Broken Clouds
Broken Clouds
51°
Feels Like: 51°
Wind Chill: 51° Ceiling: 3200
Heat Index: 51° Visibility: 10mi
Dew Point: 48° Wind: 0mph
Humidity: 89% Direction: ° ()
Pressure: 30.06in Gusts: 0mph
Raw Report DataKATT 121351Z AUTO 00000KT 10SM BKN032 11/09 A3006 RMK AO2 SLP180 T01060089
Traffic Incident Summary
Active as of:
Severity:
Category:
InformationThere was an issue retrieving the traffic information for this location. Please try a different location or try again shortly.
Advertisements